Time;durP1;ratioP1;P1;durP2;ratioP2;P2;SDS_P1;SDS_P2;PMS_P1;PMS_P2;Temp;Humidity;BMP_temperature;BMP_pressure;BME280_temperature;BME280_humidity;BME280_pressure;Samples;Min_cycle;Max_cycle;Signal;HPM_P1;HPM_P2
2023/08/11 00:01:50;;;;;;;1.98;0.50;;;;;;;;;;4985398;28;20133;-60
2023/08/11 00:04:18;;;;;;;1.45;0.55;;;;;;;;;;4982120;28;20122;-60
2023/08/11 00:06:45;;;;;;;1.60;0.50;;;;;;;;;;4982317;28;20046;-63
2023/08/11 00:09:11;;;;;;;2.13;0.50;;;;;;;;;;4983408;28;20403;-65
2023/08/11 00:11:38;;;;;;;2.67;0.60;;;;;;;;;;4979588;28;20034;-62
2023/08/11 00:14:05;;;;;;;2.03;0.68;;;;;;;;;;4983899;28;20116;-62
2023/08/11 00:16:31;;;;;;;1.48;0.50;;;;;;;;;;4981941;28;20430;-64
2023/08/11 00:18:58;;;;;;;4.40;0.80;;;;;;;;;;4997851;28;20406;-62
2023/08/11 00:21:26;;;;;;;4.80;0.60;;;;;;;;;;4980716;28;20161;-64
2023/08/11 00:23:53;;;;;;;2.65;0.70;;;;;;;;;;4982938;28;20495;-63
2023/08/11 00:26:20;;;;;;;2.13;0.50;;;;;;;;;;4982581;28;20061;-62
2023/08/11 00:28:46;;;;;;;1.67;0.50;;;;;;;;;;4994058;28;20422;-63
2023/08/11 00:31:13;;;;;;;1.75;0.47;;;;;;;;;;4979500;28;20042;-60
2023/08/11 00:33:41;;;;;;;1.65;0.50;;;;;;;;;;4994736;28;20100;-62
2023/08/11 00:36:09;;;;;;;1.05;0.50;;;;;;;;;;4980982;28;20436;-65
2023/08/11 00:38:37;;;;;;;1.95;0.60;;;;;;;;;;4979699;28;20046;-61
2023/08/11 00:41:05;;;;;;;1.65;0.50;;;;;;;;;;4980645;28;20937;-62
2023/08/11 00:43:31;;;;;;;2.30;0.50;;;;;;;;;;4980548;28;20160;-62
2023/08/11 00:46:15;;;;;;;3.20;0.60;;;;;;;;;;4981716;28;20397;-61
2023/08/11 00:48:47;;;;;;;2.38;0.60;;;;;;;;;;4979028;28;20046;-64
2023/08/11 00:51:15;;;;;;;1.25;0.47;;;;;;;;;;4988218;28;20042;-61
2023/08/11 00:53:42;;;;;;;1.83;0.50;;;;;;;;;;4993678;28;20047;-62
2023/08/11 00:56:09;;;;;;;2.08;0.60;;;;;;;;;;4996082;28;20073;-61
2023/08/11 00:58:36;;;;;;;0.45;0.30;;;;;;;;;;4998651;28;20049;-60
2023/08/11 01:01:04;;;;;;;2.63;0.60;;;;;;;;;;4992774;28;20133;-62
2023/08/11 01:03:31;;;;;;;2.00;0.60;;;;;;;;;;4991180;28;21004;-63
2023/08/11 01:06:18;;;;;;;0.90;0.35;;;;;;;;;;4993077;28;20050;-61
2023/08/11 01:09:05;;;;;;;2.00;0.60;;;;;;;;;;4992649;28;20057;-63
2023/08/11 01:11:45;;;;;;;3.75;0.50;;;;;;;;;;4993442;28;20123;-64
2023/08/11 01:14:35;;;;;;;2.25;0.60;;;;;;;;;;4994001;28;20574;-63
2023/08/11 01:17:04;;;;;;;1.83;0.60;;;;;;;;;;4995517;28;20052;-61
2023/08/11 01:19:35;;;;;;;1.75;0.50;;;;;;;;;;4994294;28;20041;-63
2023/08/11 01:22:04;;;;;;;2.67;0.50;;;;;;;;;;4991455;28;20046;-60
2023/08/11 01:24:31;;;;;;;2.33;0.65;;;;;;;;;;4986912;28;20065;-63
2023/08/11 01:26:58;;;;;;;8.00;1.02;;;;;;;;;;4983520;28;20038;-64
2023/08/11 01:29:28;;;;;;;1.90;0.50;;;;;;;;;;4982309;28;20048;-63
2023/08/11 01:31:54;;;;;;;1.67;0.50;;;;;;;;;;4985553;28;20365;-61
2023/08/11 01:34:21;;;;;;;2.95;0.63;;;;;;;;;;4987040;28;20042;-63
2023/08/11 01:36:50;;;;;;;2.10;0.65;;;;;;;;;;4983783;28;20038;-62
2023/08/11 01:39:17;;;;;;;3.75;0.70;;;;;;;;;;5000133;28;20042;-62
2023/08/11 01:41:44;;;;;;;1.70;0.50;;;;;;;;;;4981339;28;20069;-64
2023/08/11 01:44:12;;;;;;;2.97;0.80;;;;;;;;;;4993192;28;20042;-63
2023/08/11 01:46:39;;;;;;;3.42;0.90;;;;;;;;;;4981976;28;20062;-61
2023/08/11 01:49:10;;;;;;;2.13;0.55;;;;;;;;;;4984647;28;20046;-64
2023/08/11 01:51:37;;;;;;;3.33;0.50;;;;;;;;;;4983069;28;20031;-63
2023/08/11 01:54:03;;;;;;;1.48;0.50;;;;;;;;;;4985563;28;20050;-61
2023/08/11 01:56:30;;;;;;;1.65;0.50;;;;;;;;;;4985073;28;20042;-61
2023/08/11 01:58:57;;;;;;;2.40;0.60;;;;;;;;;;5002152;28;20042;-65
2023/08/11 02:01:24;;;;;;;1.67;0.50;;;;;;;;;;4983739;28;20810;-63
2023/08/11 02:03:51;;;;;;;3.60;0.70;;;;;;;;;;4985271;28;20049;-62
2023/08/11 02:06:17;;;;;;;2.33;0.60;;;;;;;;;;4990023;28;20038;-64
2023/08/11 02:08:44;;;;;;;1.65;0.50;;;;;;;;;;4984398;28;20700;-62
2023/08/11 02:11:11;;;;;;;2.67;0.65;;;;;;;;;;4983740;28;20038;-63
2023/08/11 02:13:38;;;;;;;2.80;0.70;;;;;;;;;;4983795;28;20138;-62
2023/08/11 02:16:05;;;;;;;1.23;0.43;;;;;;;;;;4984512;28;20047;-65
2023/08/11 02:18:31;;;;;;;4.15;0.80;;;;;;;;;;4998309;28;20057;-63
2023/08/11 02:20:58;;;;;;;1.17;0.40;;;;;;;;;;4984566;28;20046;-65
2023/08/11 02:23:25;;;;;;;2.75;0.50;;;;;;;;;;4982757;28;20105;-61
2023/08/11 02:25:52;;;;;;;1.77;0.60;;;;;;;;;;4982803;28;20046;-61
2023/08/11 02:28:18;;;;;;;2.50;0.50;;;;;;;;;;4981683;28;20067;-63
2023/08/11 02:30:46;;;;;;;1.55;0.50;;;;;;;;;;4984608;28;20439;-63
2023/08/11 02:33:13;;;;;;;1.95;0.63;;;;;;;;;;5000163;28;20177;-62
2023/08/11 02:35:39;;;;;;;1.15;0.40;;;;;;;;;;4982041;28;20046;-63
2023/08/11 02:38:06;;;;;;;3.22;0.68;;;;;;;;;;4984104;28;20049;-65
2023/08/11 02:40:35;;;;;;;2.25;0.60;;;;;;;;;;4983170;28;20038;-62
2023/08/11 02:43:02;;;;;;;1.33;0.47;;;;;;;;;;4983959;28;20038;-62
2023/08/11 02:45:28;;;;;;;1.75;0.50;;;;;;;;;;4985862;28;20049;-62
2023/08/11 02:47:56;;;;;;;2.47;0.60;;;;;;;;;;4991560;28;20034;-62
2023/08/11 02:50:22;;;;;;;1.58;0.55;;;;;;;;;;4980873;28;20042;-63
2023/08/11 02:52:49;;;;;;;2.92;0.68;;;;;;;;;;4981604;28;20045;-63
2023/08/11 02:55:16;;;;;;;2.25;0.70;;;;;;;;;;4980242;28;20097;-62
2023/08/11 02:57:42;;;;;;;1.65;0.60;;;;;;;;;;4981898;28;20050;-63
2023/08/11 03:00:13;;;;;;;1.65;0.60;;;;;;;;;;4995842;28;20042;-66
2023/08/11 03:02:45;;;;;;;2.15;0.70;;;;;;;;;;4981698;28;20724;-65
2023/08/11 03:05:14;;;;;;;2.40;0.60;;;;;;;;;;4984438;28;20071;-67
2023/08/11 03:07:41;;;;;;;2.30;0.80;;;;;;;;;;4978459;28;20042;-65
2023/08/11 03:10:12;;;;;;;3.63;0.70;;;;;;;;;;4998666;28;20049;-65
2023/08/11 03:12:38;;;;;;;2.88;0.70;;;;;;;;;;4983549;28;20599;-64
2023/08/11 03:15:06;;;;;;;2.05;0.70;;;;;;;;;;5000518;28;20042;-64
2023/08/11 03:17:35;;;;;;;2.28;0.60;;;;;;;;;;4985198;28;20483;-64
2023/08/11 03:20:03;;;;;;;2.03;0.60;;;;;;;;;;4988399;28;20050;-63
2023/08/11 03:22:29;;;;;;;1.95;0.68;;;;;;;;;;4986902;28;20049;-65
2023/08/11 03:24:57;;;;;;;3.95;1.30;;;;;;;;;;4987492;28;20935;-64
2023/08/11 03:27:23;;;;;;;6.20;1.60;;;;;;;;;;4984891;28;20488;-64
2023/08/11 03:29:50;;;;;;;4.95;1.35;;;;;;;;;;4984086;28;20418;-65
2023/08/11 03:32:17;;;;;;;7.03;1.80;;;;;;;;;;4984528;28;20050;-63
2023/08/11 03:34:44;;;;;;;3.78;1.40;;;;;;;;;;4993166;28;20038;-67
2023/08/11 03:37:11;;;;;;;3.10;1.10;;;;;;;;;;4994835;28;20105;-64
2023/08/11 03:39:38;;;;;;;6.43;1.50;;;;;;;;;;4995782;28;20534;-63
2023/08/11 03:42:05;;;;;;;4.20;1.15;;;;;;;;;;4997001;28;20038;-61
2023/08/11 03:44:32;;;;;;;4.78;1.23;;;;;;;;;;4997027;28;20052;-65
2023/08/11 03:46:59;;;;;;;3.10;1.00;;;;;;;;;;4999397;28;20565;-63
2023/08/11 03:49:26;;;;;;;4.32;1.00;;;;;;;;;;4998201;28;20714;-66
2023/08/11 03:51:53;;;;;;;3.33;1.10;;;;;;;;;;4991965;28;20070;-61
2023/08/11 03:54:19;;;;;;;7.90;1.05;;;;;;;;;;4986020;28;20034;-62
2023/08/11 03:56:46;;;;;;;7.15;1.95;;;;;;;;;;4986070;28;20095;-63
2023/08/11 03:59:13;;;;;;;6.38;1.80;;;;;;;;;;4993242;28;20034;-62
2023/08/11 04:01:39;;;;;;;4.70;1.85;;;;;;;;;;4984606;28;20042;-62
2023/08/11 04:04:06;;;;;;;6.72;1.80;;;;;;;;;;4987779;28;20030;-61
2023/08/11 04:06:33;;;;;;;4.38;1.52;;;;;;;;;;4985176;28;20045;-62
2023/08/11 04:09:00;;;;;;;4.57;1.45;;;;;;;;;;4993181;28;20624;-62
2023/08/11 04:11:27;;;;;;;7.50;2.00;;;;;;;;;;4984860;28;20093;-61
2023/08/11 04:13:56;;;;;;;7.50;2.13;;;;;;;;;;4985186;28;20093;-65
2023/08/11 04:16:23;;;;;;;14.43;2.17;;;;;;;;;;4984144;28;21264;-64
2023/08/11 04:18:50;;;;;;;5.15;1.90;;;;;;;;;;4984340;28;20506;-64
2023/08/11 04:21:17;;;;;;;5.25;2.03;;;;;;;;;;4981902;28;20073;-63
2023/08/11 04:23:43;;;;;;;5.15;1.40;;;;;;;;;;4984687;28;20499;-64
2023/08/11 04:26:11;;;;;;;5.35;1.40;;;;;;;;;;4984339;28;20043;-61
2023/08/11 04:28:38;;;;;;;6.88;1.33;;;;;;;;;;4983677;28;20038;-62
2023/08/11 04:31:09;;;;;;;4.30;1.30;;;;;;;;;;4985624;28;20096;-62
2023/08/11 04:33:37;;;;;;;4.00;1.02;;;;;;;;;;4999956;28;20463;-63
2023/08/11 04:36:03;;;;;;;4.45;1.42;;;;;;;;;;4985835;28;20080;-61
2023/08/11 04:38:33;;;;;;;3.88;1.30;;;;;;;;;;4989783;28;20156;-61
2023/08/11 04:41:00;;;;;;;3.30;1.30;;;;;;;;;;4983472;28;20157;-64
2023/08/11 04:43:26;;;;;;;4.28;1.20;;;;;;;;;;4998662;28;20042;-63
2023/08/11 04:45:54;;;;;;;3.83;1.25;;;;;;;;;;4964483;28;20058;-60
2023/08/11 04:48:21;;;;;;;3.08;1.25;;;;;;;;;;4964388;28;20034;-62
2023/08/11 04:50:50;;;;;;;4.32;1.50;;;;;;;;;;4962286;28;20045;-62
2023/08/11 04:53:17;;;;;;;3.33;0.95;;;;;;;;;;4973264;28;20035;-62
2023/08/11 04:55:44;;;;;;;5.78;1.30;;;;;;;;;;4962459;28;20062;-61
2023/08/11 04:58:11;;;;;;;4.10;1.10;;;;;;;;;;4963260;28;20499;-65
2023/08/11 05:00:37;;;;;;;3.35;1.23;;;;;;;;;;4961515;28;20043;-62
2023/08/11 05:03:04;;;;;;;4.63;1.27;;;;;;;;;;4961929;28;20045;-61
2023/08/11 05:05:31;;;;;;;3.88;1.27;;;;;;;;;;4978135;28;20102;-64
2023/08/11 05:07:58;;;;;;;4.40;1.27;;;;;;;;;;4960756;28;20610;-63
2023/08/11 05:10:24;;;;;;;9.55;1.52;;;;;;;;;;4960542;28;20039;-66
2023/08/11 05:12:51;;;;;;;4.72;1.27;;;;;;;;;;4963203;28;20108;-63
2023/08/11 05:15:18;;;;;;;4.10;1.20;;;;;;;;;;4964312;28;20043;-63
2023/08/11 05:17:45;;;;;;;4.80;1.30;;;;;;;;;;4964048;28;20061;-64
2023/08/11 05:20:14;;;;;;;6.35;1.40;;;;;;;;;;4960710;28;20043;-65
2023/08/11 05:22:41;;;;;;;4.07;1.25;;;;;;;;;;4967647;28;20805;-62
2023/08/11 05:25:09;;;;;;;4.82;1.23;;;;;;;;;;4969357;28;20173;-64
2023/08/11 05:27:35;;;;;;;2.97;1.05;;;;;;;;;;4980710;28;20050;-63
2023/08/11 05:30:03;;;;;;;3.20;1.20;;;;;;;;;;4980983;28;20046;-62
2023/08/11 05:32:30;;;;;;;4.82;1.42;;;;;;;;;;4982812;28;20039;-63
2023/08/11 05:34:56;;;;;;;4.38;1.13;;;;;;;;;;4981492;28;20038;-63
2023/08/11 05:37:24;;;;;;;4.28;1.35;;;;;;;;;;4966073;28;20063;-65
2023/08/11 05:39:52;;;;;;;3.97;1.20;;;;;;;;;;4966497;28;20492;-61
2023/08/11 05:42:19;;;;;;;2.20;0.90;;;;;;;;;;4982431;28;20065;-63
2023/08/11 05:44:46;;;;;;;8.82;1.00;;;;;;;;;;4974453;28;20054;-65
2023/08/11 05:47:12;;;;;;;3.13;1.17;;;;;;;;;;5000404;28;20046;-63
2023/08/11 05:49:39;;;;;;;4.00;0.93;;;;;;;;;;4999978;28;20038;-64
2023/08/11 05:52:06;;;;;;;2.47;0.80;;;;;;;;;;4984708;28;20208;-63
2023/08/11 05:54:33;;;;;;;4.18;1.27;;;;;;;;;;4984888;28;20039;-63
2023/08/11 05:56:59;;;;;;;3.13;0.88;;;;;;;;;;4983973;28;20038;-65
2023/08/11 05:59:26;;;;;;;5.50;1.10;;;;;;;;;;4984700;28;20471;-63
2023/08/11 06:01:53;;;;;;;4.75;1.38;;;;;;;;;;4987701;28;20058;-63
2023/08/11 06:04:20;;;;;;;4.72;1.23;;;;;;;;;;4984547;28;20499;-63
2023/08/11 06:06:46;;;;;;;3.35;1.10;;;;;;;;;;4982306;28;20050;-65
2023/08/11 06:09:13;;;;;;;3.85;1.23;;;;;;;;;;4984443;28;20030;-62
2023/08/11 06:11:40;;;;;;;4.03;1.10;;;;;;;;;;4984109;28;20061;-63
2023/08/11 06:14:06;;;;;;;7.50;1.25;;;;;;;;;;4984435;28;20176;-63
2023/08/11 06:16:33;;;;;;;6.07;1.48;;;;;;;;;;4993147;28;20120;-61
2023/08/11 06:19:00;;;;;;;4.70;1.17;;;;;;;;;;4985385;28;20105;-63
2023/08/11 06:21:27;;;;;;;5.18;1.35;;;;;;;;;;4997779;28;20133;-63
2023/08/11 06:23:54;;;;;;;3.78;1.40;;;;;;;;;;4986893;28;20138;-63
2023/08/11 06:26:20;;;;;;;6.15;1.60;;;;;;;;;;4983277;28;20042;-64
2023/08/11 06:28:47;;;;;;;5.07;1.65;;;;;;;;;;4984682;28;20121;-63
2023/08/11 06:31:13;;;;;;;3.67;1.30;;;;;;;;;;4986416;28;20057;-62
2023/08/11 06:33:40;;;;;;;10.40;1.75;;;;;;;;;;4984056;28;20042;-63
2023/08/11 06:36:07;;;;;;;5.20;1.75;;;;;;;;;;5001929;28;20129;-60
2023/08/11 06:38:33;;;;;;;4.53;1.83;;;;;;;;;;5001362;28;20050;-61
2023/08/11 06:41:00;;;;;;;4.00;1.40;;;;;;;;;;4982397;28;20069;-62
2023/08/11 06:43:27;;;;;;;7.20;1.65;;;;;;;;;;4982334;28;20104;-62
2023/08/11 06:45:53;;;;;;;4.90;1.40;;;;;;;;;;4985601;28;20102;-62
2023/08/11 06:48:20;;;;;;;4.35;1.45;;;;;;;;;;4986001;28;20041;-63
2023/08/11 06:50:47;;;;;;;6.18;1.77;;;;;;;;;;4983956;28;20067;-64
2023/08/11 06:53:13;;;;;;;6.95;2.00;;;;;;;;;;5000826;28;20046;-64
2023/08/11 06:55:40;;;;;;;7.63;1.80;;;;;;;;;;4986215;28;20039;-63
2023/08/11 06:58:06;;;;;;;4.88;1.50;;;;;;;;;;4985602;28;20141;-63
2023/08/11 07:00:33;;;;;;;4.65;1.10;;;;;;;;;;4983968;28;20041;-61
2023/08/11 07:03:00;;;;;;;5.22;1.35;;;;;;;;;;4982060;28;20396;-64
2023/08/11 07:05:26;;;;;;;3.30;0.90;;;;;;;;;;4997559;28;20165;-63
2023/08/11 07:07:53;;;;;;;7.15;1.38;;;;;;;;;;4981760;28;20050;-64
2023/08/11 07:10:20;;;;;;;7.97;1.33;;;;;;;;;;4984427;28;20054;-63
2023/08/11 07:12:47;;;;;;;6.40;1.40;;;;;;;;;;4983175;28;20061;-63
2023/08/11 07:15:13;;;;;;;4.63;1.17;;;;;;;;;;4996595;28;20042;-64
2023/08/11 07:17:40;;;;;;;5.30;1.60;;;;;;;;;;4983829;28;20998;-63
2023/08/11 07:20:07;;;;;;;5.65;1.48;;;;;;;;;;4983943;28;20072;-63
2023/08/11 07:22:33;;;;;;;5.10;1.10;;;;;;;;;;4988193;28;20526;-62
2023/08/11 07:25:00;;;;;;;7.00;1.05;;;;;;;;;;4997310;28;20050;-64
2023/08/11 07:27:27;;;;;;;3.03;1.05;;;;;;;;;;4982647;28;20043;-63
2023/08/11 07:29:53;;;;;;;3.70;1.15;;;;;;;;;;4984274;28;20046;-62
2023/08/11 07:32:20;;;;;;;9.65;1.30;;;;;;;;;;4982551;28;20042;-63
2023/08/11 07:34:47;;;;;;;4.30;1.10;;;;;;;;;;4982240;28;20038;-64
2023/08/11 07:37:13;;;;;;;3.75;1.23;;;;;;;;;;4981721;28;20233;-63
2023/08/11 07:39:42;;;;;;;3.05;1.00;;;;;;;;;;4981700;28;20037;-64
2023/08/11 07:42:08;;;;;;;7.97;1.08;;;;;;;;;;4997804;28;20045;-63
2023/08/11 07:44:35;;;;;;;3.33;1.10;;;;;;;;;;4982571;28;20570;-64
2023/08/11 07:47:02;;;;;;;3.28;1.10;;;;;;;;;;4982457;28;20578;-61
2023/08/11 07:49:29;;;;;;;4.65;0.85;;;;;;;;;;4995255;28;20044;-64
2023/08/11 07:51:57;;;;;;;4.28;1.00;;;;;;;;;;4998375;28;20114;-62
2023/08/11 07:54:24;;;;;;;3.97;0.75;;;;;;;;;;4981024;28;20050;-63
2023/08/11 07:56:51;;;;;;;2.47;0.75;;;;;;;;;;4983005;28;20041;-63
2023/08/11 07:59:17;;;;;;;2.90;0.82;;;;;;;;;;4995870;28;20269;-63
2023/08/11 08:01:44;;;;;;;4.43;1.10;;;;;;;;;;4997284;28;20046;-63
2023/08/11 08:04:10;;;;;;;5.20;0.73;;;;;;;;;;4981956;28;20046;-64
2023/08/11 08:06:44;;;;;;;2.72;0.88;;;;;;;;;;4980974;28;20053;-63
2023/08/11 08:09:12;;;;;;;3.30;1.17;;;;;;;;;;4982146;28;20038;-62
2023/08/11 08:11:47;;;;;;;5.10;1.75;;;;;;;;;;4996094;28;20049;-62
2023/08/11 08:14:14;;;;;;;4.03;1.30;;;;;;;;;;4992232;28;20050;-61
2023/08/11 08:16:47;;;;;;;2.70;0.85;;;;;;;;;;4981421;28;20096;-62
2023/08/11 08:19:14;;;;;;;3.25;1.05;;;;;;;;;;4981278;28;20509;-65
2023/08/11 08:21:42;;;;;;;2.42;0.80;;;;;;;;;;4994847;28;20119;-63
2023/08/11 08:24:09;;;;;;;3.67;0.95;;;;;;;;;;4977883;28;20135;-63
2023/08/11 08:26:36;;;;;;;3.10;0.90;;;;;;;;;;4994448;28;20046;-63
2023/08/11 08:29:03;;;;;;;2.70;0.73;;;;;;;;;;4990719;28;20107;-64
2023/08/11 08:31:30;;;;;;;3.60;1.00;;;;;;;;;;4981829;28;20038;-64
2023/08/11 08:33:57;;;;;;;4.18;0.85;;;;;;;;;;4982405;28;20540;-64
2023/08/11 08:36:23;;;;;;;4.15;0.90;;;;;;;;;;4989837;28;20042;-63
2023/08/11 08:38:50;;;;;;;3.63;0.70;;;;;;;;;;4980051;28;20408;-63
2023/08/11 08:41:20;;;;;;;4.93;1.10;;;;;;;;;;4996759;28;20037;-63
2023/08/11 08:43:53;;;;;;;3.45;0.77;;;;;;;;;;4980484;28;20546;-62
2023/08/11 08:46:26;;;;;;;3.13;0.90;;;;;;;;;;4980281;28;20054;-63
2023/08/11 08:49:05;;;;;;;2.55;0.82;;;;;;;;;;4996515;28;21012;-67
2023/08/11 08:51:33;;;;;;;2.53;0.90;;;;;;;;;;4981138;28;20042;-63
2023/08/11 08:54:01;;;;;;;2.22;0.70;;;;;;;;;;4981701;28;20046;-65
2023/08/11 08:56:27;;;;;;;2.40;0.70;;;;;;;;;;4980230;28;20042;-63
2023/08/11 08:58:54;;;;;;;2.85;0.68;;;;;;;;;;4983142;28;20049;-65
2023/08/11 09:01:20;;;;;;;2.13;0.60;;;;;;;;;;4985040;28;20431;-62
2023/08/11 09:03:47;;;;;;;2.22;0.73;;;;;;;;;;4980937;28;20386;-66
2023/08/11 09:06:15;;;;;;;2.40;0.70;;;;;;;;;;4981883;28;20056;-62
2023/08/11 09:08:42;;;;;;;2.40;0.70;;;;;;;;;;4981492;28;20062;-63
2023/08/11 09:11:08;;;;;;;1.95;0.60;;;;;;;;;;4981330;28;20066;-63
2023/08/11 09:13:38;;;;;;;4.70;0.82;;;;;;;;;;4980428;28;20443;-62
2023/08/11 09:16:04;;;;;;;2.28;0.70;;;;;;;;;;4980098;28;20050;-63
2023/08/11 09:18:31;;;;;;;3.05;0.88;;;;;;;;;;4981687;28;20471;-63
2023/08/11 09:20:58;;;;;;;2.72;0.60;;;;;;;;;;4980671;28;20053;-64
2023/08/11 09:23:25;;;;;;;2.70;0.80;;;;;;;;;;4979890;28;20381;-64
2023/08/11 09:25:54;;;;;;;1.90;0.60;;;;;;;;;;4981033;28;20053;-64
2023/08/11 09:28:21;;;;;;;1.95;0.60;;;;;;;;;;4981017;28;20726;-64
2023/08/11 09:30:50;;;;;;;3.08;0.60;;;;;;;;;;4972374;28;20046;-62
2023/08/11 09:33:17;;;;;;;2.33;0.70;;;;;;;;;;4981755;28;20581;-63
2023/08/11 09:35:45;;;;;;;3.30;0.80;;;;;;;;;;4986911;28;20108;-61
2023/08/11 09:38:12;;;;;;;3.90;0.65;;;;;;;;;;4996125;28;20041;-61
2023/08/11 09:40:39;;;;;;;5.35;0.85;;;;;;;;;;4979081;28;20046;-63
2023/08/11 09:43:06;;;;;;;2.65;0.80;;;;;;;;;;4981957;28;20161;-63
2023/08/11 09:45:33;;;;;;;5.45;0.80;;;;;;;;;;4978495;28;20047;-62
2023/08/11 09:47:59;;;;;;;3.20;0.70;;;;;;;;;;4978063;28;20499;-63
2023/08/11 09:50:28;;;;;;;3.47;0.95;;;;;;;;;;4980143;28;20201;-63
2023/08/11 09:52:56;;;;;;;2.55;0.73;;;;;;;;;;4995190;28;20066;-64
2023/08/11 09:55:23;;;;;;;3.28;0.73;;;;;;;;;;5018971;28;20740;-63
2023/08/11 09:57:50;;;;;;;8.32;1.00;;;;;;;;;;5020392;28;20037;-62
2023/08/11 10:00:19;;;;;;;4.45;1.00;;;;;;;;;;5016830;28;20045;-62
2023/08/11 10:03:09;;;;;;;4.25;0.88;;;;;;;;;;5019722;28;20081;-64
2023/08/11 10:05:37;;;;;;;9.77;1.40;;;;;;;;;;4999954;28;20508;-63
2023/08/11 10:08:05;;;;;;;5.95;1.05;;;;;;;;;;5006877;28;20242;-62
2023/08/11 10:10:32;;;;;;;4.10;1.40;;;;;;;;;;5023422;28;20048;-63
2023/08/11 10:13:06;;;;;;;6.15;2.10;;;;;;;;;;5008493;28;20042;-63
2023/08/11 10:15:33;;;;;;;5.35;1.85;;;;;;;;;;5020195;28;20048;-63
2023/08/11 10:18:02;;;;;;;3.20;1.27;;;;;;;;;;5023423;28;20029;-63
2023/08/11 10:20:29;;;;;;;4.32;1.45;;;;;;;;;;4997604;28;20542;-63
2023/08/11 10:22:57;;;;;;;7.07;1.60;;;;;;;;;;5020942;28;20046;-63
2023/08/11 10:25:24;;;;;;;5.18;1.58;;;;;;;;;;5002473;28;20038;-70
2023/08/11 10:27:53;;;;;;;9.27;1.77;;;;;;;;;;5022455;28;20039;-65
2023/08/11 10:30:20;;;;;;;6.22;1.23;;;;;;;;;;5021685;28;20889;-63
2023/08/11 10:32:56;;;;;;;3.53;1.10;;;;;;;;;;5004084;28;20065;-65
2023/08/11 10:35:26;;;;;;;5.25;1.10;;;;;;;;;;4983386;28;20053;-64
2023/08/11 10:38:00;;;;;;;4.25;1.10;;;;;;;;;;4983956;28;20046;-64
2023/08/11 10:40:38;;;;;;;3.20;0.90;;;;;;;;;;4991906;28;20045;-63
2023/08/11 10:43:05;;;;;;;5.30;0.90;;;;;;;;;;4999188;28;20178;-64
2023/08/11 10:45:36;;;;;;;6.30;0.98;;;;;;;;;;4987896;28;20057;-63
2023/08/11 10:48:10;;;;;;;4.22;1.05;;;;;;;;;;4998925;28;20503;-64
2023/08/11 10:50:56;;;;;;;3.08;1.15;;;;;;;;;;4982822;28;20050;-63
2023/08/11 10:53:23;;;;;;;4.25;1.20;;;;;;;;;;4982811;28;20045;-63
2023/08/11 10:56:10;;;;;;;3.67;0.90;;;;;;;;;;4984512;28;20038;-64
2023/08/11 10:58:38;;;;;;;6.05;1.00;;;;;;;;;;4982072;28;20497;-65
2023/08/11 11:01:05;;;;;;;2.85;0.85;;;;;;;;;;4986053;28;20830;-62
2023/08/11 11:03:32;;;;;;;3.35;1.00;;;;;;;;;;4978344;28;20046;-62
2023/08/11 11:05:58;;;;;;;3.95;1.40;;;;;;;;;;4976759;28;20420;-64
2023/08/11 11:08:25;;;;;;;9.02;1.30;;;;;;;;;;4979807;28;20053;-63
2023/08/11 11:10:52;;;;;;;3.63;1.20;;;;;;;;;;4977235;28;20050;-64
2023/08/11 11:13:19;;;;;;;3.13;1.27;;;;;;;;;;4979644;28;20042;-64
2023/08/11 11:15:46;;;;;;;4.25;1.58;;;;;;;;;;4978687;28;20050;-64
2023/08/11 11:18:12;;;;;;;3.50;1.60;;;;;;;;;;4982683;28;20046;-63
2023/08/11 11:20:39;;;;;;;4.57;1.70;;;;;;;;;;4979586;28;20046;-63
2023/08/11 11:23:25;;;;;;;8.40;1.80;;;;;;;;;;4986554;28;20073;-64
2023/08/11 11:25:52;;;;;;;7.88;1.70;;;;;;;;;;5006752;28;20049;-64
2023/08/11 11:28:19;;;;;;;5.03;1.52;;;;;;;;;;5008571;28;21497;-64
2023/08/11 11:30:45;;;;;;;5.30;1.60;;;;;;;;;;5004114;28;20053;-64
2023/08/11 11:33:15;;;;;;;5.50;1.38;;;;;;;;;;4986452;28;20184;-63
2023/08/11 11:35:41;;;;;;;3.08;1.10;;;;;;;;;;4993101;28;20112;-64
2023/08/11 11:38:08;;;;;;;4.85;1.30;;;;;;;;;;4992954;28;20129;-65
2023/08/11 11:40:34;;;;;;;3.95;1.25;;;;;;;;;;4991075;28;20755;-64
2023/08/11 11:43:01;;;;;;;6.18;1.25;;;;;;;;;;4987378;28;20042;-63
2023/08/11 11:45:28;;;;;;;4.05;1.20;;;;;;;;;;4990548;28;20149;-63
2023/08/11 11:47:54;;;;;;;5.00;1.10;;;;;;;;;;4989971;28;20513;-62
2023/08/11 11:50:22;;;;;;;7.25;1.45;;;;;;;;;;4981950;28;20057;-62
2023/08/11 11:52:49;;;;;;;6.22;1.25;;;;;;;;;;4990920;28;20041;-63
2023/08/11 11:55:16;;;;;;;7.00;1.08;;;;;;;;;;4990838;28;20042;-64
2023/08/11 11:57:43;;;;;;;5.93;1.15;;;;;;;;;;4989950;28;20057;-63
2023/08/11 12:00:16;;;;;;;3.28;1.10;;;;;;;;;;4988850;28;20515;-63
2023/08/11 12:02:53;;;;;;;7.38;1.27;;;;;;;;;;4983022;28;20069;-63
2023/08/11 12:05:21;;;;;;;9.55;1.58;;;;;;;;;;4983229;28;20923;-61
2023/08/11 12:07:47;;;;;;;10.55;1.17;;;;;;;;;;4992047;28;20044;-64
2023/08/11 12:10:15;;;;;;;5.53;1.52;;;;;;;;;;4986971;28;20101;-62
2023/08/11 12:12:42;;;;;;;4.95;1.10;;;;;;;;;;4985233;28;20026;-62
2023/08/11 12:15:09;;;;;;;4.78;1.20;;;;;;;;;;4980295;28;20038;-63
2023/08/11 12:17:37;;;;;;;5.07;1.33;;;;;;;;;;4980909;28;20071;-64
2023/08/11 12:20:10;;;;;;;3.72;0.98;;;;;;;;;;4979183;28;20081;-62
2023/08/11 12:22:37;;;;;;;6.47;0.93;;;;;;;;;;4980356;28;20046;-60
2023/08/11 12:25:03;;;;;;;6.80;1.30;;;;;;;;;;4980376;28;20045;-63
2023/08/11 12:27:30;;;;;;;3.67;1.17;;;;;;;;;;4978088;28;20058;-64
2023/08/11 12:29:57;;;;;;;5.35;1.27;;;;;;;;;;4979417;28;20042;-61
2023/08/11 12:32:23;;;;;;;11.88;1.67;;;;;;;;;;4979244;28;20038;-63
2023/08/11 12:34:50;;;;;;;5.50;1.33;;;;;;;;;;4981239;28;20043;-63
2023/08/11 12:37:17;;;;;;;6.13;1.58;;;;;;;;;;4979544;28;20457;-63
2023/08/11 12:39:43;;;;;;;9.73;1.20;;;;;;;;;;4994302;28;20041;-64
2023/08/11 12:42:10;;;;;;;7.57;1.45;;;;;;;;;;4978150;28;20177;-65
2023/08/11 12:44:38;;;;;;;5.32;1.77;;;;;;;;;;4980157;28;20090;-63
2023/08/11 12:47:05;;;;;;;7.72;1.80;;;;;;;;;;4994532;28;20058;-64
2023/08/11 12:49:32;;;;;;;3.42;1.10;;;;;;;;;;4979855;28;20587;-63
2023/08/11 12:51:58;;;;;;;4.32;1.35;;;;;;;;;;4995482;28;20134;-63
2023/08/11 12:54:25;;;;;;;7.40;1.30;;;;;;;;;;4980131;28;20066;-64
2023/08/11 12:56:52;;;;;;;7.45;1.23;;;;;;;;;;4988765;28;20097;-64
2023/08/11 12:59:18;;;;;;;3.85;1.05;;;;;;;;;;4980596;28;20575;-64
2023/08/11 13:01:45;;;;;;;7.07;1.30;;;;;;;;;;4974742;28;20049;-64
2023/08/11 13:04:12;;;;;;;7.57;1.20;;;;;;;;;;4991184;28;20829;-64
2023/08/11 13:06:39;;;;;;;4.20;1.13;;;;;;;;;;4973590;28;21824;-63
2023/08/11 13:09:11;;;;;;;3.63;1.20;;;;;;;;;;4980687;28;20410;-64
2023/08/11 13:11:38;;;;;;;4.20;1.58;;;;;;;;;;4985749;28;20145;-63
2023/08/11 13:14:04;;;;;;;6.43;1.25;;;;;;;;;;4981503;28;20104;-65
2023/08/11 13:16:31;;;;;;;4.18;1.35;;;;;;;;;;4978946;28;20112;-67
2023/08/11 13:18:57;;;;;;;4.15;1.10;;;;;;;;;;4975707;28;20054;-63
2023/08/11 13:21:24;;;;;;;3.88;1.30;;;;;;;;;;4992202;28;20042;-65
2023/08/11 13:23:51;;;;;;;4.55;1.13;;;;;;;;;;4978118;28;20489;-62
2023/08/11 13:26:17;;;;;;;3.97;1.30;;;;;;;;;;4976473;28;20891;-60
2023/08/11 13:28:44;;;;;;;4.22;1.08;;;;;;;;;;4984901;28;20066;-65
2023/08/11 13:31:11;;;;;;;4.95;1.08;;;;;;;;;;4985009;28;21702;-66
2023/08/11 13:33:37;;;;;;;3.45;1.00;;;;;;;;;;4982659;28;20362;-64
2023/08/11 13:36:04;;;;;;;8.07;1.15;;;;;;;;;;4983034;28;20542;-65
2023/08/11 13:38:32;;;;;;;3.05;0.90;;;;;;;;;;4982575;28;20798;-65
2023/08/11 13:40:58;;;;;;;3.53;1.05;;;;;;;;;;4982140;28;20128;-64
2023/08/11 13:43:25;;;;;;;3.95;1.10;;;;;;;;;;4980286;28;20042;-64
2023/08/11 13:45:53;;;;;;;3.03;1.00;;;;;;;;;;4985096;28;20188;-64
2023/08/11 13:48:21;;;;;;;4.60;1.05;;;;;;;;;;4987498;28;20050;-64
2023/08/11 13:50:48;;;;;;;7.75;2.33;;;;;;;;;;4987711;28;20183;-63
2023/08/11 13:53:15;;;;;;;4.25;1.35;;;;;;;;;;4978333;28;20244;-64
2023/08/11 13:55:43;;;;;;;5.10;1.20;;;;;;;;;;4981955;28;20073;-63
2023/08/11 13:58:09;;;;;;;3.28;1.10;;;;;;;;;;4984864;28;20598;-64
2023/08/11 14:00:36;;;;;;;3.67;0.93;;;;;;;;;;4983716;28;21442;-63
2023/08/11 14:03:03;;;;;;;2.92;0.90;;;;;;;;;;4999030;28;20030;-64
2023/08/11 14:05:29;;;;;;;3.45;1.00;;;;;;;;;;4983036;28;20625;-63
2023/08/11 14:07:56;;;;;;;4.97;0.98;;;;;;;;;;4997059;28;20092;-62
2023/08/11 14:10:23;;;;;;;6.53;1.23;;;;;;;;;;4983455;28;20492;-62
2023/08/11 14:12:50;;;;;;;3.72;0.90;;;;;;;;;;4998404;28;20090;-64
2023/08/11 14:15:17;;;;;;;3.10;0.85;;;;;;;;;;4982528;28;20050;-66
2023/08/11 14:17:43;;;;;;;3.05;1.00;;;;;;;;;;4985437;28;20201;-61
2023/08/11 14:20:10;;;;;;;7.97;1.10;;;;;;;;;;4987767;28;20073;-60
2023/08/11 14:22:37;;;;;;;3.03;1.00;;;;;;;;;;4982735;28;20172;-66
2023/08/11 14:25:04;;;;;;;2.95;0.88;;;;;;;;;;4983442;28;20051;-63
2023/08/11 14:27:31;;;;;;;4.00;1.00;;;;;;;;;;4996469;28;20030;-65
2023/08/11 14:29:57;;;;;;;9.95;1.10;;;;;;;;;;4983126;28;20092;-64
2023/08/11 14:32:24;;;;;;;3.53;1.02;;;;;;;;;;4983011;28;20534;-64
2023/08/11 14:34:50;;;;;;;3.75;0.82;;;;;;;;;;4984049;28;20038;-64
2023/08/11 14:37:17;;;;;;;5.05;0.95;;;;;;;;;;4985591;28;20027;-64
2023/08/11 14:39:44;;;;;;;8.48;1.02;;;;;;;;;;4984985;28;21994;-64
2023/08/11 14:42:10;;;;;;;4.32;1.05;;;;;;;;;;4997871;28;20102;-64
2023/08/11 14:44:37;;;;;;;6.10;1.00;;;;;;;;;;5009685;28;20118;-64
2023/08/11 14:47:05;;;;;;;4.80;0.80;;;;;;;;;;4994666;28;20051;-63